Huvudsida
METAR-TAF:

METAR-TAF

Flygplatser :

Visby Airport

Visby, Gotland, Sverige

latitud: 57-40N, longitud: 018-21E, höjd: 51 m

Aktuellt väderrapport

Denna rapport gjordes för 38 minuter sedan, klockan 21:20 UTC
Vind 9 kt från syd
Temperatur 4°C
Fuktighet 87%
Tryck 1012 hPa
Sikt 10 km eller mer

METAR: ESSV 112120Z AUTO 17009KT 9999 FEW024/// 04/02 Q1012

Tid: 22:58 (21:58 UTC)

Väderprognos

Denna rapport gjordes för 1 timme och 28 minuter sedan, klockan 20:30 UTC
Prognos gäller från 11 kl. 21 UTC till 11 kl. 23 UTC
Vind 8 kt från syd/sydost
Sikt 10 km eller mer
Spridda moln på en höjd av 3000 ft

TAF: ESSV 112030Z 1121/1123 16008KT 9999 SCT030

Aktuella väderrapporter och prognoser från 4000 flygplatser (METAR- och TAF-rapporter).

De tillgängliga stationerna syns som gula och röda prickar på kartan.

För musen över prickarna för att se namnen på stationerna.

Klicka sedan för att få väderrapporter och prognoser.

För att ändra kartan: Klicka på de gröna knapparna med ett svart kors på för att zooma in; den gröna knappen med ett streck på för att zooma ut; eller på de gröna pilarna för angränsande kartor.


METAR-TAF: